createdAt,value
2019-04-22T00:00:12.676Z,21.29
2019-04-22T00:02:43.513Z,21.23
2019-04-22T00:05:15.139Z,21.24
2019-04-22T00:08:00.119Z,21.18
2019-04-22T00:10:28.960Z,21.14
2019-04-22T00:15:10.123Z,21.15
2019-04-22T00:17:48.230Z,21.18
2019-04-22T00:20:08.668Z,21.18
2019-04-22T00:22:32.477Z,21.17
2019-04-22T00:25:03.437Z,21.18
2019-04-22T00:27:35.725Z,21.18
2019-04-22T00:30:15.476Z,21.17
2019-04-22T00:32:18.186Z,21.20
2019-04-22T00:34:42.616Z,21.20
2019-04-22T00:37:11.364Z,21.17
2019-04-22T00:39:42.619Z,21.20
2019-04-22T00:42:03.333Z,21.18
2019-04-22T00:44:33.246Z,21.22
2019-04-22T00:46:59.580Z,21.21
2019-04-22T00:54:13.712Z,21.22
2019-04-22T00:56:40.843Z,21.18
2019-04-22T00:59:11.481Z,21.23
2019-04-22T01:01:41.055Z,21.21
2019-04-22T01:04:14.570Z,21.23
2019-04-22T01:06:25.720Z,21.23
2019-04-22T01:08:57.814Z,21.18
2019-04-22T01:11:24.756Z,21.21
2019-04-22T01:13:45.583Z,21.23
2019-04-22T01:16:17.102Z,21.19
2019-04-22T01:18:38.016Z,21.22
2019-04-22T01:23:29.852Z,21.24
2019-04-22T01:25:55.071Z,21.23
2019-04-22T01:28:15.161Z,21.24
2019-04-22T01:30:38.374Z,21.28
2019-04-22T01:33:03.587Z,21.24
2019-04-22T01:35:34.850Z,21.24
2019-04-22T01:38:04.162Z,21.28
2019-04-22T01:40:39.079Z,21.30
2019-04-22T01:43:14.733Z,21.27
2019-04-22T01:45:25.909Z,21.31
2019-04-22T01:48:00.536Z,21.28
2019-04-22T01:50:26.169Z,21.31
2019-04-22T01:52:56.765Z,21.32
2019-04-22T01:55:27.317Z,21.33
2019-04-22T01:57:41.409Z,21.34
2019-04-22T02:00:00.792Z,21.33
2019-04-22T02:02:38.456Z,21.32
2019-04-22T02:05:07.338Z,21.34
2019-04-22T02:07:29.449Z,21.32
2019-04-22T02:09:56.112Z,21.34
2019-04-22T02:12:21.347Z,21.39
2019-04-22T02:14:44.011Z,21.30
2019-04-22T02:17:17.649Z,21.38
2019-04-22T02:22:11.530Z,21.39
2019-04-22T02:24:39.953Z,21.39
2019-04-22T02:26:58.200Z,21.35
2019-04-22T02:29:30.048Z,21.35
2019-04-22T02:32:04.861Z,21.39
2019-04-22T02:34:24.075Z,21.37
2019-04-22T02:39:11.826Z,21.42
2019-04-22T02:41:54.721Z,21.37
2019-04-22T02:44:13.893Z,21.35
2019-04-22T02:49:18.774Z,21.36
2019-04-22T02:54:23.211Z,21.36
2019-04-22T02:56:27.511Z,21.36
2019-04-22T03:01:22.966Z,21.34
2019-04-22T03:03:50.559Z,21.40
2019-04-22T03:06:48.888Z,21.37
2019-04-22T03:08:51.133Z,21.40
2019-04-22T03:11:07.584Z,21.38
2019-04-22T03:13:38.280Z,21.39
2019-04-22T03:15:59.550Z,21.47
2019-04-22T03:18:20.044Z,21.48
2019-04-22T03:20:50.082Z,21.53
2019-04-22T03:28:23.636Z,21.70
2019-04-22T03:33:14.544Z,21.73
2019-04-22T03:37:55.932Z,21.78
2019-04-22T03:40:30.407Z,21.81
2019-04-22T03:42:52.390Z,21.87
2019-04-22T03:45:20.172Z,21.87
2019-04-22T03:47:38.729Z,21.91
2019-04-22T03:50:04.013Z,21.91
2019-04-22T04:09:32.725Z,22.36
2019-04-22T04:12:03.530Z,22.42
2019-04-22T04:14:33.126Z,22.48
2019-04-22T04:16:56.340Z,22.54
2019-04-22T04:19:30.816Z,22.60
2019-04-22T04:21:42.116Z,22.69
2019-04-22T04:29:17.192Z,22.91
2019-04-22T04:31:32.782Z,23.02
2019-04-22T04:33:54.064Z,23.09
